Ah Gwah Ching, Minnesota
Current Conditions -  °F | °C
As of 8:55 PM on Sunday 23 Nov 2014 (Local Time) from KY49 Reporting Station
Overcast Overcast  
Wind Chill: -7°   Ceiling: 600
Heat Index: -1°   Visibility: 7mi
Dew Point: -2°   Wind: 13mph
Humidity: 93%   Direction: 290°WNW
Pressure: 29.4"   Gusts: NA
Location:  47.08°N, 94.57°W
Report Text: KY49 240255Z AUTO 29011KT 7SM OVC006 M01/M02 A2940 RMK AO2 T10101020
Loading
Personal Weather Stations






























Interactive Weather Map New forecast layout! Learn more

10-Day Weather Forecast

Advertisements
Track Severe Weather on mobile